Terminal Aerodrome Forecast
Issued by NWS Shreveport, LA

Current Version | Previous Version | Text Only | Print | Product List | Glossary On
Versions: 1 2 3 4 5 6 7 8 9 10 11 12 13 14 15 16 17 18 19
000
FTUS44 KSHV 290540
TAFELD
TAF
KELD 290540Z 2906/3006 00000KT P6SM SKC
     FM290800 VRB03KT 5SM BR BKN250
     FM291000 14005KT P6SM VCSH SCT009 BKN045
     FM291500 18006KT 6SM BR OVC012
     FM291700 19006KT P6SM FEW018 SCT050 BKN120
     FM292100 20007KT P6SM VCTS BKN040CB OVC100
     FM300000 18005KT P6SM SCT050 OVC250=

USA.gov is the U.S. government's official web portal to all federal, state and local government web resources and services.